sensor_id;sensor_type;location;lat;lon;timestamp;pressure;altitude;pressure_sealevel;temperature;humidity
62978;BME280;49073;42.352;23.808;2023-05-20T00:02:21;95017.66;;;10.81;100.00
62978;BME280;49073;42.352;23.808;2023-05-20T00:05:22;95018.09;;;10.83;99.33
62978;BME280;49073;42.352;23.808;2023-05-20T00:08:23;95011.59;;;10.80;97.21
62978;BME280;49073;42.352;23.808;2023-05-20T00:11:24;95009.94;;;10.75;97.29
62978;BME280;49073;42.352;23.808;2023-05-20T00:14:25;95004.97;;;10.74;94.85
62978;BME280;49073;42.352;23.808;2023-05-20T00:17:26;95001.78;;;10.68;95.65
62978;BME280;49073;42.352;23.808;2023-05-20T00:20:27;95006.19;;;10.60;97.55
62978;BME280;49073;42.352;23.808;2023-05-20T00:23:28;95007.97;;;10.56;98.06
62978;BME280;49073;42.352;23.808;2023-05-20T00:26:29;95006.19;;;10.60;97.52
62978;BME280;49073;42.352;23.808;2023-05-20T00:29:30;95001.19;;;10.43;98.13
62978;BME280;49073;42.352;23.808;2023-05-20T00:32:31;94994.16;;;10.51;97.77
62978;BME280;49073;42.352;23.808;2023-05-20T00:35:31;95000.50;;;10.46;94.41
62978;BME280;49073;42.352;23.808;2023-05-20T00:38:32;94987.59;;;10.32;93.72
62978;BME280;49073;42.352;23.808;2023-05-20T00:41:33;94983.69;;;10.13;94.89
62978;BME280;49073;42.352;23.808;2023-05-20T00:44:34;94985.47;;;9.93;96.51
62978;BME280;49073;42.352;23.808;2023-05-20T00:47:35;94986.50;;;9.88;97.98
62978;BME280;49073;42.352;23.808;2023-05-20T00:50:36;94985.28;;;9.86;98.27
62978;BME280;49073;42.352;23.808;2023-05-20T00:53:37;94987.13;;;9.98;99.54
62978;BME280;49073;42.352;23.808;2023-05-20T00:56:38;94985.31;;;10.02;98.27
62978;BME280;49073;42.352;23.808;2023-05-20T00:59:38;94986.09;;;10.02;97.30
62978;BME280;49073;42.352;23.808;2023-05-20T01:02:39;94985.66;;;10.00;96.96
62978;BME280;49073;42.352;23.808;2023-05-20T01:05:40;94980.31;;;10.00;96.18
62978;BME280;49073;42.352;23.808;2023-05-20T01:08:40;94969.50;;;9.93;94.53
62978;BME280;49073;42.352;23.808;2023-05-20T01:11:47;94970.59;;;9.76;95.07
62978;BME280;49073;42.352;23.808;2023-05-20T01:14:57;94974.50;;;9.66;97.45
62978;BME280;49073;42.352;23.808;2023-05-20T01:18:05;94975.13;;;9.75;98.04
62978;BME280;49073;42.352;23.808;2023-05-20T01:21:10;94972.34;;;9.84;96.59
62978;BME280;49073;42.352;23.808;2023-05-20T01:24:11;94969.91;;;9.79;95.32
62978;BME280;49073;42.352;23.808;2023-05-20T01:27:12;94968.25;;;9.74;96.16
62978;BME280;49073;42.352;23.808;2023-05-20T01:30:13;94964.75;;;9.70;96.46
62978;BME280;49073;42.352;23.808;2023-05-20T01:33:16;94976.56;;;9.57;94.67
62978;BME280;49073;42.352;23.808;2023-05-20T01:36:20;94976.56;;;9.57;94.54
62978;BME280;49073;42.352;23.808;2023-05-20T01:39:22;94978.78;;;9.42;96.11
62978;BME280;49073;42.352;23.808;2023-05-20T01:42:25;94978.91;;;9.46;95.62
62978;BME280;49073;42.352;23.808;2023-05-20T01:45:26;94977.38;;;9.45;95.27
62978;BME280;49073;42.352;23.808;2023-05-20T01:48:27;94974.84;;;9.36;95.49
62978;BME280;49073;42.352;23.808;2023-05-20T01:51:27;94964.81;;;9.17;94.74
62978;BME280;49073;42.352;23.808;2023-05-20T01:54:30;94961.06;;;9.18;97.38
62978;BME280;49073;42.352;23.808;2023-05-20T01:57:30;94959.16;;;9.19;97.07
62978;BME280;49073;42.352;23.808;2023-05-20T02:00:32;94958.41;;;9.18;97.50
62978;BME280;49073;42.352;23.808;2023-05-20T02:03:33;94974.00;;;9.20;97.86
62978;BME280;49073;42.352;23.808;2023-05-20T02:06:33;94966.03;;;9.20;98.85
62978;BME280;49073;42.352;23.808;2023-05-20T02:09:34;94964.16;;;9.20;97.50
62978;BME280;49073;42.352;23.808;2023-05-20T02:12:35;94964.28;;;9.11;97.37
62978;BME280;49073;42.352;23.808;2023-05-20T02:15:39;94964.84;;;9.05;97.16
62978;BME280;49073;42.352;23.808;2023-05-20T02:18:40;94962.56;;;8.91;98.40
62978;BME280;49073;42.352;23.808;2023-05-20T02:21:41;94961.88;;;8.94;98.76
62978;BME280;49073;42.352;23.808;2023-05-20T02:24:44;94969.19;;;8.97;96.49
62978;BME280;49073;42.352;23.808;2023-05-20T02:27:45;94970.63;;;8.82;96.59
62978;BME280;49073;42.352;23.808;2023-05-20T02:30:45;94964.34;;;8.86;98.46
62978;BME280;49073;42.352;23.808;2023-05-20T02:33:46;94959.91;;;8.91;99.39
62978;BME280;49073;42.352;23.808;2023-05-20T02:36:48;94958.13;;;8.95;96.92
62978;BME280;49073;42.352;23.808;2023-05-20T02:39:48;94960.22;;;8.77;97.61
62978;BME280;49073;42.352;23.808;2023-05-20T02:42:49;94962.56;;;8.66;99.49
62978;BME280;49073;42.352;23.808;2023-05-20T02:45:49;94964.66;;;8.72;100.00
62978;BME280;49073;42.352;23.808;2023-05-20T02:48:50;94964.75;;;8.76;99.92
62978;BME280;49073;42.352;23.808;2023-05-20T02:51:51;94963.78;;;8.81;97.93
62978;BME280;49073;42.352;23.808;2023-05-20T02:54:51;94955.81;;;8.81;98.95
62978;BME280;49073;42.352;23.808;2023-05-20T02:57:52;94972.72;;;9.01;97.19
62978;BME280;49073;42.352;23.808;2023-05-20T03:00:53;94963.88;;;8.97;96.52
62978;BME280;49073;42.352;23.808;2023-05-20T03:03:54;94963.53;;;8.86;96.18
62978;BME280;49073;42.352;23.808;2023-05-20T03:06:54;94968.09;;;8.85;97.93
62978;BME280;49073;42.352;23.808;2023-05-20T03:09:56;94971.41;;;8.95;98.62
62978;BME280;49073;42.352;23.808;2023-05-20T03:13:03;94966.09;;;8.95;96.61
62978;BME280;49073;42.352;23.808;2023-05-20T03:16:07;94978.50;;;8.91;97.93
62978;BME280;49073;42.352;23.808;2023-05-20T03:19:08;94973.19;;;8.91;96.71
62978;BME280;49073;42.352;23.808;2023-05-20T03:22:09;94982.69;;;8.92;96.31
62978;BME280;49073;42.352;23.808;2023-05-20T03:25:09;94982.03;;;8.82;95.81
62978;BME280;49073;42.352;23.808;2023-05-20T03:28:10;94973.84;;;8.75;97.03
62978;BME280;49073;42.352;23.808;2023-05-20T03:31:11;94979.38;;;8.82;98.91
62978;BME280;49073;42.352;23.808;2023-05-20T03:34:11;94971.72;;;8.93;99.24
62978;BME280;49073;42.352;23.808;2023-05-20T03:37:12;94974.50;;;8.97;99.80
62978;BME280;49073;42.352;23.808;2023-05-20T03:40:12;94968.84;;;8.98;100.00
62978;BME280;49073;42.352;23.808;2023-05-20T03:43:13;94977.44;;;9.08;100.00
62978;BME280;49073;42.352;23.808;2023-05-20T03:46:14;94975.97;;;9.23;100.00
62978;BME280;49073;42.352;23.808;2023-05-20T03:49:15;94980.63;;;9.26;100.00
62978;BME280;49073;42.352;23.808;2023-05-20T03:52:15;94989.28;;;9.23;100.00
62978;BME280;49073;42.352;23.808;2023-05-20T03:55:16;94988.56;;;9.38;100.00
62978;BME280;49073;42.352;23.808;2023-05-20T03:58:16;94989.31;;;9.51;100.00
62978;BME280;49073;42.352;23.808;2023-05-20T04:01:17;94987.53;;;9.55;100.00
62978;BME280;49073;42.352;23.808;2023-05-20T04:04:17;95006.69;;;9.61;100.00
62978;BME280;49073;42.352;23.808;2023-05-20T04:07:18;94994.63;;;9.51;100.00
62978;BME280;49073;42.352;23.808;2023-05-20T04:10:19;94998.06;;;9.52;100.00
62978;BME280;49073;42.352;23.808;2023-05-20T04:13:20;95006.38;;;9.79;100.00
62978;BME280;49073;42.352;23.808;2023-05-20T04:16:21;94997.16;;;9.88;100.00
62978;BME280;49073;42.352;23.808;2023-05-20T04:19:21;94995.34;;;9.93;100.00
62978;BME280;49073;42.352;23.808;2023-05-20T04:22:23;94980.38;;;9.88;100.00
62978;BME280;49073;42.352;23.808;2023-05-20T04:25:23;94973.81;;;9.98;100.00
62978;BME280;49073;42.352;23.808;2023-05-20T04:28:25;94977.00;;;10.03;100.00
62978;BME280;49073;42.352;23.808;2023-05-20T04:31:27;94973.91;;;10.17;100.00
62978;BME280;49073;42.352;23.808;2023-05-20T04:34:30;94974.72;;;10.34;100.00
62978;BME280;49073;42.352;23.808;2023-05-20T04:37:34;94976.88;;;10.44;100.00
62978;BME280;49073;42.352;23.808;2023-05-20T04:40:36;94981.69;;;10.55;100.00
62978;BME280;49073;42.352;23.808;2023-05-20T04:43:38;94977.72;;;10.65;100.00
62978;BME280;49073;42.352;23.808;2023-05-20T04:46:39;94991.81;;;10.81;100.00
62978;BME280;49073;42.352;23.808;2023-05-20T04:49:40;94991.63;;;10.90;100.00
62978;BME280;49073;42.352;23.808;2023-05-20T04:52:41;95001.38;;;11.02;100.00
62978;BME280;49073;42.352;23.808;2023-05-20T04:55:44;95001.94;;;11.27;100.00
62978;BME280;49073;42.352;23.808;2023-05-20T04:58:45;95011.63;;;11.35;100.00
62978;BME280;49073;42.352;23.808;2023-05-20T05:01:45;95009.19;;;11.46;100.00
62978;BME280;49073;42.352;23.808;2023-05-20T05:04:46;95007.84;;;11.76;100.00
62978;BME280;49073;42.352;23.808;2023-05-20T05:07:46;95004.41;;;11.95;100.00
62978;BME280;49073;42.352;23.808;2023-05-20T05:10:47;95001.31;;;11.93;100.00
62978;BME280;49073;42.352;23.808;2023-05-20T05:13:48;95006.44;;;12.02;100.00
62978;BME280;49073;42.352;23.808;2023-05-20T05:16:48;95007.28;;;12.06;100.00
62978;BME280;49073;42.352;23.808;2023-05-20T05:19:49;95002.84;;;11.94;100.00
62978;BME280;49073;42.352;23.808;2023-05-20T05:22:50;95010.88;;;11.94;100.00
62978;BME280;49073;42.352;23.808;2023-05-20T05:25:50;94998.81;;;12.00;100.00
62978;BME280;49073;42.352;23.808;2023-05-20T05:28:53;95003.13;;;12.08;100.00
62978;BME280;49073;42.352;23.808;2023-05-20T05:31:54;94995.97;;;12.13;100.00
62978;BME280;49073;42.352;23.808;2023-05-20T05:34:54;94992.41;;;12.28;100.00
62978;BME280;49073;42.352;23.808;2023-05-20T05:37:55;94997.81;;;12.32;100.00
62978;BME280;49073;42.352;23.808;2023-05-20T05:40:55;94994.84;;;12.60;100.00
62978;BME280;49073;42.352;23.808;2023-05-20T05:43:59;95004.88;;;12.67;100.00
62978;BME280;49073;42.352;23.808;2023-05-20T05:46:59;95000.88;;;12.80;100.00
62978;BME280;49073;42.352;23.808;2023-05-20T05:50:00;94993.66;;;13.12;100.00
62978;BME280;49073;42.352;23.808;2023-05-20T05:53:01;95000.63;;;13.16;100.00
62978;BME280;49073;42.352;23.808;2023-05-20T05:56:01;94997.97;;;13.20;100.00
62978;BME280;49073;42.352;23.808;2023-05-20T05:59:03;94996.44;;;13.19;100.00
62978;BME280;49073;42.352;23.808;2023-05-20T06:02:03;94991.09;;;13.19;100.00
62978;BME280;49073;42.352;23.808;2023-05-20T06:05:04;94991.22;;;13.30;100.00
62978;BME280;49073;42.352;23.808;2023-05-20T06:08:05;94987.75;;;13.26;100.00
62978;BME280;49073;42.352;23.808;2023-05-20T06:11:06;94990.50;;;13.33;100.00
62978;BME280;49073;42.352;23.808;2023-05-20T06:14:07;94988.13;;;13.55;100.00
62978;BME280;49073;42.352;23.808;2023-05-20T06:17:08;94987.41;;;13.58;100.00
62978;BME280;49073;42.352;23.808;2023-05-20T06:20:09;94991.72;;;13.66;100.00
62978;BME280;49073;42.352;23.808;2023-05-20T06:23:09;94988.38;;;13.76;100.00
62978;BME280;49073;42.352;23.808;2023-05-20T06:26:10;94990.84;;;13.92;100.00
62978;BME280;49073;42.352;23.808;2023-05-20T06:29:14;94984.13;;;14.09;100.00
62978;BME280;49073;42.352;23.808;2023-05-20T06:32:14;94978.50;;;14.22;100.00
62978;BME280;49073;42.352;23.808;2023-05-20T06:35:16;94974.72;;;14.26;100.00
62978;BME280;49073;42.352;23.808;2023-05-20T06:38:17;94963.66;;;14.32;99.27
62978;BME280;49073;42.352;23.808;2023-05-20T06:41:18;94958.34;;;14.39;97.74
62978;BME280;49073;42.352;23.808;2023-05-20T06:44:18;94951.16;;;14.50;94.02
62978;BME280;49073;42.352;23.808;2023-05-20T06:47:19;94957.00;;;14.63;93.17
62978;BME280;49073;42.352;23.808;2023-05-20T06:50:20;94952.56;;;14.82;92.83
62978;BME280;49073;42.352;23.808;2023-05-20T06:53:21;94958.09;;;15.11;88.75
62978;BME280;49073;42.352;23.808;2023-05-20T06:56:21;94956.31;;;15.37;84.28
62978;BME280;49073;42.352;23.808;2023-05-20T06:59:22;94960.59;;;15.52;84.42
62978;BME280;49073;42.352;23.808;2023-05-20T07:02:24;94956.38;;;15.51;80.32
62978;BME280;49073;42.352;23.808;2023-05-20T07:05:24;94956.41;;;15.59;76.61
62978;BME280;49073;42.352;23.808;2023-05-20T07:08:28;94956.38;;;15.55;76.50
62978;BME280;49073;42.352;23.808;2023-05-20T07:11:28;94956.81;;;15.75;81.47
62978;BME280;49073;42.352;23.808;2023-05-20T07:14:29;94947.31;;;15.99;80.67
62978;BME280;49073;42.352;23.808;2023-05-20T07:17:29;94944.69;;;16.28;78.21
62978;BME280;49073;42.352;23.808;2023-05-20T07:20:30;94942.38;;;16.45;77.62
62978;BME280;49073;42.352;23.808;2023-05-20T07:23:30;94943.53;;;16.55;74.03
62978;BME280;49073;42.352;23.808;2023-05-20T07:26:31;94943.13;;;16.64;74.98
62978;BME280;49073;42.352;23.808;2023-05-20T07:29:36;94935.81;;;16.71;74.58
62978;BME280;49073;42.352;23.808;2023-05-20T07:32:37;94935.44;;;16.69;72.04
62978;BME280;49073;42.352;23.808;2023-05-20T07:35:38;94947.34;;;17.01;71.42
62978;BME280;49073;42.352;23.808;2023-05-20T07:38:38;94943.09;;;17.04;68.91
62978;BME280;49073;42.352;23.808;2023-05-20T07:41:39;94943.09;;;17.11;70.17
62978;BME280;49073;42.352;23.808;2023-05-20T07:44:40;94948.06;;;17.16;66.95
62978;BME280;49073;42.352;23.808;2023-05-20T07:47:41;94936.91;;;17.21;65.45
62978;BME280;49073;42.352;23.808;2023-05-20T07:50:41;94936.78;;;17.54;66.97
62978;BME280;49073;42.352;23.808;2023-05-20T07:53:42;94935.56;;;17.66;62.27
62978;BME280;49073;42.352;23.808;2023-05-20T07:56:42;94923.59;;;17.70;61.84
62978;BME280;49073;42.352;23.808;2023-05-20T07:59:43;94923.22;;;17.72;62.11
62978;BME280;49073;42.352;23.808;2023-05-20T08:02:44;94920.03;;;17.92;59.72
62978;BME280;49073;42.352;23.808;2023-05-20T08:05:45;94924.19;;;18.07;56.43
62978;BME280;49073;42.352;23.808;2023-05-20T08:08:46;94916.78;;;18.18;58.57
62978;BME280;49073;42.352;23.808;2023-05-20T08:11:47;94924.72;;;18.40;54.46
62978;BME280;49073;42.352;23.808;2023-05-20T08:14:48;94926.59;;;18.47;56.12
62978;BME280;49073;42.352;23.808;2023-05-20T08:17:48;94921.91;;;18.51;59.68
62978;BME280;49073;42.352;23.808;2023-05-20T08:20:49;94923.50;;;18.49;58.33
62978;BME280;49073;42.352;23.808;2023-05-20T08:23:50;94924.38;;;18.35;56.78
62978;BME280;49073;42.352;23.808;2023-05-20T08:26:50;94911.22;;;18.40;54.49
62978;BME280;49073;42.352;23.808;2023-05-20T08:29:51;94915.69;;;18.58;59.73
62978;BME280;49073;42.352;23.808;2023-05-20T08:32:52;94909.19;;;18.97;54.82
62978;BME280;49073;42.352;23.808;2023-05-20T08:35:53;94900.22;;;19.08;56.10
62978;BME280;49073;42.352;23.808;2023-05-20T08:38:53;94904.59;;;19.29;56.47
62978;BME280;49073;42.352;23.808;2023-05-20T08:41:57;94908.69;;;19.41;56.02
62978;BME280;49073;42.352;23.808;2023-05-20T08:44:58;94904.38;;;19.47;53.15
62978;BME280;49073;42.352;23.808;2023-05-20T08:48:00;94902.56;;;19.37;56.08
62978;BME280;49073;42.352;23.808;2023-05-20T08:51:02;94897.69;;;19.24;57.42
62978;BME280;49073;42.352;23.808;2023-05-20T08:54:04;94900.69;;;18.99;54.59
62978;BME280;49073;42.352;23.808;2023-05-20T08:57:06;94890.59;;;19.03;56.96
62978;BME280;49073;42.352;23.808;2023-05-20T09:00:08;94901.88;;;18.94;55.84
62978;BME280;49073;42.352;23.808;2023-05-20T09:03:13;94900.38;;;18.89;57.20
62978;BME280;49073;42.352;23.808;2023-05-20T09:06:15;94902.72;;;18.84;57.58
62978;BME280;49073;42.352;23.808;2023-05-20T09:09:16;94907.81;;;18.78;56.26
62978;BME280;49073;42.352;23.808;2023-05-20T09:12:17;94910.06;;;18.83;58.77
62978;BME280;49073;42.352;23.808;2023-05-20T09:15:17;94914.41;;;18.73;60.44
62978;BME280;49073;42.352;23.808;2023-05-20T09:18:18;94904.25;;;18.43;63.89
62978;BME280;49073;42.352;23.808;2023-05-20T09:21:25;94908.59;;;18.33;62.10
62978;BME280;49073;42.352;23.808;2023-05-20T09:24:25;94901.63;;;18.78;65.52
62978;BME280;49073;42.352;23.808;2023-05-20T09:27:26;94909.47;;;19.07;63.17
62978;BME280;49073;42.352;23.808;2023-05-20T09:30:27;94901.75;;;19.09;63.76
62978;BME280;49073;42.352;23.808;2023-05-20T09:33:29;94898.59;;;19.14;66.55
62978;BME280;49073;42.352;23.808;2023-05-20T09:36:33;94887.28;;;18.88;64.45
62978;BME280;49073;42.352;23.808;2023-05-20T09:39:55;94900.34;;;18.93;61.21
62978;BME280;49073;42.352;23.808;2023-05-20T09:43:06;94896.16;;;18.85;60.30
62978;BME280;49073;42.352;23.808;2023-05-20T09:46:07;94900.66;;;18.60;62.94
62978;BME280;49073;42.352;23.808;2023-05-20T09:49:08;94907.19;;;18.14;68.20
62978;BME280;49073;42.352;23.808;2023-05-20T09:52:14;94903.97;;;17.70;66.73
62978;BME280;49073;42.352;23.808;2023-05-20T09:55:16;94895.28;;;17.40;64.32
62978;BME280;49073;42.352;23.808;2023-05-20T09:58:19;94900.28;;;17.31;66.38
62978;BME280;49073;42.352;23.808;2023-05-20T10:01:19;94898.84;;;17.12;67.69
62978;BME280;49073;42.352;23.808;2023-05-20T10:04:22;94904.53;;;17.36;69.45
62978;BME280;49073;42.352;23.808;2023-05-20T10:10:51;94900.94;;;17.60;66.16
62978;BME280;49073;42.352;23.808;2023-05-20T10:17:41;94893.63;;;17.61;60.98
62978;BME280;49073;42.352;23.808;2023-05-20T10:20:45;94896.75;;;17.52;59.61
62978;BME280;49073;42.352;23.808;2023-05-20T10:23:47;94894.13;;;17.34;66.98
62978;BME280;49073;42.352;23.808;2023-05-20T10:26:54;94891.84;;;17.33;63.38
62978;BME280;49073;42.352;23.808;2023-05-20T10:29:55;94897.16;;;17.47;63.87
62978;BME280;49073;42.352;23.808;2023-05-20T10:33:02;94901.78;;;17.47;62.77
62978;BME280;49073;42.352;23.808;2023-05-20T10:36:05;94899.47;;;17.49;62.28
62978;BME280;49073;42.352;23.808;2023-05-20T10:39:06;94895.69;;;17.32;62.84
62978;BME280;49073;42.352;23.808;2023-05-20T10:42:07;94888.78;;;17.27;64.67
62978;BME280;49073;42.352;23.808;2023-05-20T10:45:09;94894.25;;;17.01;66.39
62978;BME280;49073;42.352;23.808;2023-05-20T10:48:26;94900.44;;;16.80;68.34
62978;BME280;49073;42.352;23.808;2023-05-20T10:51:27;94899.28;;;16.67;68.17
62978;BME280;49073;42.352;23.808;2023-05-20T10:54:28;94899.66;;;16.76;69.00
62978;BME280;49073;42.352;23.808;2023-05-20T10:57:29;94915.78;;;16.94;71.52
62978;BME280;49073;42.352;23.808;2023-05-20T11:00:33;94927.34;;;16.87;72.30
62978;BME280;49073;42.352;23.808;2023-05-20T11:03:35;94931.16;;;16.90;78.11
62978;BME280;49073;42.352;23.808;2023-05-20T11:06:36;94922.75;;;16.48;85.23
62978;BME280;49073;42.352;23.808;2023-05-20T11:09:36;94905.09;;;16.07;83.78
62978;BME280;49073;42.352;23.808;2023-05-20T11:12:38;94903.88;;;15.76;90.08
62978;BME280;49073;42.352;23.808;2023-05-20T11:15:38;94892.72;;;15.66;97.31
62978;BME280;49073;42.352;23.808;2023-05-20T11:18:39;94889.63;;;15.68;94.53
62978;BME280;49073;42.352;23.808;2023-05-20T11:21:43;94892.41;;;15.97;93.53
62978;BME280;49073;42.352;23.808;2023-05-20T11:24:44;94893.56;;;16.39;91.91
62978;BME280;49073;42.352;23.808;2023-05-20T11:27:45;94911.22;;;16.69;96.44
62978;BME280;49073;42.352;23.808;2023-05-20T11:30:47;94900.78;;;17.04;95.13
62978;BME280;49073;42.352;23.808;2023-05-20T11:33:49;94888.88;;;16.98;90.51
62978;BME280;49073;42.352;23.808;2023-05-20T11:36:56;94889.56;;;17.27;87.26
62978;BME280;49073;42.352;23.808;2023-05-20T11:40:05;94882.75;;;17.79;84.19
62978;BME280;49073;42.352;23.808;2023-05-20T11:43:10;94881.06;;;18.00;79.03
62978;BME280;49073;42.352;23.808;2023-05-20T11:46:11;94882.94;;;18.10;79.25
62978;BME280;49073;42.352;23.808;2023-05-20T11:49:13;94867.00;;;17.74;77.45
62978;BME280;49073;42.352;23.808;2023-05-20T11:52:14;94867.75;;;17.74;78.72
62978;BME280;49073;42.352;23.808;2023-05-20T11:55:14;94861.00;;;17.37;77.26
62978;BME280;49073;42.352;23.808;2023-05-20T11:58:17;94870.25;;;17.36;78.27
62978;BME280;49073;42.352;23.808;2023-05-20T12:01:17;94875.78;;;17.07;81.70
62978;BME280;49073;42.352;23.808;2023-05-20T12:04:18;94868.88;;;16.92;88.90
62978;BME280;49073;42.352;23.808;2023-05-20T12:07:19;94866.22;;;16.77;91.38
62978;BME280;49073;42.352;23.808;2023-05-20T12:10:19;94863.13;;;16.79;92.95
62978;BME280;49073;42.352;23.808;2023-05-20T12:13:20;94863.56;;;16.66;95.29
62978;BME280;49073;42.352;23.808;2023-05-20T12:16:22;94862.03;;;16.62;97.98
62978;BME280;49073;42.352;23.808;2023-05-20T12:19:23;94871.28;;;16.39;96.84
62978;BME280;49073;42.352;23.808;2023-05-20T12:22:23;94870.50;;;16.38;99.15
62978;BME280;49073;42.352;23.808;2023-05-20T12:25:24;94872.06;;;16.14;96.71
62978;BME280;49073;42.352;23.808;2023-05-20T12:28:25;94875.50;;;16.36;97.76
62978;BME280;49073;42.352;23.808;2023-05-20T12:31:25;94872.06;;;16.28;95.55
62978;BME280;49073;42.352;23.808;2023-05-20T12:34:26;94862.47;;;16.35;90.96
62978;BME280;49073;42.352;23.808;2023-05-20T12:37:26;94867.44;;;16.58;89.70
62978;BME280;49073;42.352;23.808;2023-05-20T12:40:27;94870.88;;;16.51;87.70
62978;BME280;49073;42.352;23.808;2023-05-20T12:43:28;94864.69;;;16.69;91.42
62978;BME280;49073;42.352;23.808;2023-05-20T12:46:28;94863.91;;;16.76;95.53
62978;BME280;49073;42.352;23.808;2023-05-20T12:49:29;94859.31;;;16.72;96.71
62978;BME280;49073;42.352;23.808;2023-05-20T12:52:29;94857.38;;;16.77;97.51
62978;BME280;49073;42.352;23.808;2023-05-20T12:55:30;94845.06;;;16.72;99.56
62978;BME280;49073;42.352;23.808;2023-05-20T12:58:30;94849.72;;;16.71;99.37
62978;BME280;49073;42.352;23.808;2023-05-20T13:01:31;94843.94;;;16.66;99.88
62978;BME280;49073;42.352;23.808;2023-05-20T13:04:31;94830.13;;;16.67;100.00
62978;BME280;49073;42.352;23.808;2023-05-20T13:07:32;94826.28;;;16.68;97.36
62978;BME280;49073;42.352;23.808;2023-05-20T13:10:33;94823.16;;;16.81;97.79
62978;BME280;49073;42.352;23.808;2023-05-20T13:13:33;94823.41;;;17.15;96.58
62978;BME280;49073;42.352;23.808;2023-05-20T13:16:34;94815.38;;;17.12;93.78
62978;BME280;49073;42.352;23.808;2023-05-20T13:19:35;94807.25;;;17.19;92.33
62978;BME280;49073;42.352;23.808;2023-05-20T13:22:37;94813.31;;;17.34;87.25
62978;BME280;49073;42.352;23.808;2023-05-20T13:25:37;94812.09;;;17.46;84.79
62978;BME280;49073;42.352;23.808;2023-05-20T13:28:38;94800.31;;;17.82;81.07
62978;BME280;49073;42.352;23.808;2023-05-20T13:31:38;94808.09;;;18.22;79.25
62978;BME280;49073;42.352;23.808;2023-05-20T13:34:39;94801.28;;;18.06;75.54
62978;BME280;49073;42.352;23.808;2023-05-20T13:37:39;94800.47;;;18.13;77.69
62978;BME280;49073;42.352;23.808;2023-05-20T13:40:40;94799.03;;;18.43;79.18
62978;BME280;49073;42.352;23.808;2023-05-20T13:43:41;94792.25;;;18.66;77.69
62978;BME280;49073;42.352;23.808;2023-05-20T13:46:41;94798.19;;;19.19;76.88
62978;BME280;49073;42.352;23.808;2023-05-20T13:49:42;94781.63;;;19.17;71.08
62978;BME280;49073;42.352;23.808;2023-05-20T13:52:42;94788.22;;;18.46;72.42
62978;BME280;49073;42.352;23.808;2023-05-20T13:55:43;94773.34;;;17.85;72.39
62978;BME280;49073;42.352;23.808;2023-05-20T13:58:44;94774.78;;;17.44;70.03
62978;BME280;49073;42.352;23.808;2023-05-20T14:01:45;94771.16;;;17.06;70.74
62978;BME280;49073;42.352;23.808;2023-05-20T14:04:45;94777.31;;;16.95;74.06
62978;BME280;49073;42.352;23.808;2023-05-20T14:07:46;94774.06;;;17.33;74.57
62978;BME280;49073;42.352;23.808;2023-05-20T14:10:47;94775.97;;;17.93;70.23
62978;BME280;49073;42.352;23.808;2023-05-20T14:13:47;94765.66;;;18.26;67.71
62978;BME280;49073;42.352;23.808;2023-05-20T14:16:49;94766.81;;;18.63;69.01
62978;BME280;49073;42.352;23.808;2023-05-20T14:19:50;94768.34;;;18.26;66.57
62978;BME280;49073;42.352;23.808;2023-05-20T14:22:51;94772.09;;;17.94;65.76
62978;BME280;49073;42.352;23.808;2023-05-20T14:25:52;94763.41;;;17.75;68.33
62978;BME280;49073;42.352;23.808;2023-05-20T14:28:52;94764.41;;;17.43;70.44
62978;BME280;49073;42.352;23.808;2023-05-20T14:31:53;94760.50;;;17.51;70.22
62978;BME280;49073;42.352;23.808;2023-05-20T14:34:53;94765.31;;;17.74;69.05
62978;BME280;49073;42.352;23.808;2023-05-20T14:37:54;94770.09;;;18.05;66.85
62978;BME280;49073;42.352;23.808;2023-05-20T14:40:54;94759.34;;;18.43;68.36
62978;BME280;49073;42.352;23.808;2023-05-20T14:43:55;94756.19;;;18.49;65.11
62978;BME280;49073;42.352;23.808;2023-05-20T14:46:55;94753.16;;;18.43;64.69
62978;BME280;49073;42.352;23.808;2023-05-20T14:49:56;94750.84;;;18.03;65.24
62978;BME280;49073;42.352;23.808;2023-05-20T14:52:57;94746.81;;;17.80;66.27
62978;BME280;49073;42.352;23.808;2023-05-20T14:55:57;94740.03;;;17.57;66.44
62978;BME280;49073;42.352;23.808;2023-05-20T14:58:58;94748.97;;;17.47;67.00
62978;BME280;49073;42.352;23.808;2023-05-20T15:01:58;94749.50;;;17.24;67.91
62978;BME280;49073;42.352;23.808;2023-05-20T15:04:59;94745.34;;;17.15;68.84
62978;BME280;49073;42.352;23.808;2023-05-20T15:08:00;94742.69;;;17.05;65.88
62978;BME280;49073;42.352;23.808;2023-05-20T15:11:00;94744.97;;;17.13;70.27
62978;BME280;49073;42.352;23.808;2023-05-20T15:14:01;94753.06;;;17.10;68.11
62978;BME280;49073;42.352;23.808;2023-05-20T15:17:02;94758.06;;;17.08;65.82
62978;BME280;49073;42.352;23.808;2023-05-20T15:20:03;94752.34;;;16.98;64.31
62978;BME280;49073;42.352;23.808;2023-05-20T15:23:04;94757.72;;;16.98;66.96
62978;BME280;49073;42.352;23.808;2023-05-20T15:26:05;94754.66;;;17.00;68.52
62978;BME280;49073;42.352;23.808;2023-05-20T15:29:05;94749.72;;;16.80;65.23
62978;BME280;49073;42.352;23.808;2023-05-20T15:32:06;94751.69;;;16.72;67.42
62978;BME280;49073;42.352;23.808;2023-05-20T15:35:07;94749.78;;;16.69;67.43
62978;BME280;49073;42.352;23.808;2023-05-20T15:38:08;94755.16;;;16.69;66.30
62978;BME280;49073;42.352;23.808;2023-05-20T15:41:08;94756.72;;;16.63;67.48
62978;BME280;49073;42.352;23.808;2023-05-20T15:44:11;94762.13;;;16.52;67.48
62978;BME280;49073;42.352;23.808;2023-05-20T15:47:12;94757.91;;;16.55;66.49
62978;BME280;49073;42.352;23.808;2023-05-20T15:50:12;94755.63;;;16.50;65.45
62978;BME280;49073;42.352;23.808;2023-05-20T15:53:13;94747.91;;;16.44;66.29
62978;BME280;49073;42.352;23.808;2023-05-20T15:56:14;94751.38;;;16.49;65.29